sensor_id;sensor_type;location;lat;lon;timestamp;P1;durP1;ratioP1;P2;durP2;ratioP2
17451;SDS011;8843;48.838;9.324;2024-03-02T00:00:38;8.50;;;6.53;;
17451;SDS011;8843;48.838;9.324;2024-03-02T00:03:05;9.97;;;7.60;;
17451;SDS011;8843;48.838;9.324;2024-03-02T00:05:35;7.03;;;6.33;;
17451;SDS011;8843;48.838;9.324;2024-03-02T00:08:03;10.10;;;6.83;;
17451;SDS011;8843;48.838;9.324;2024-03-02T00:10:35;10.70;;;7.10;;
17451;SDS011;8843;48.838;9.324;2024-03-02T00:13:05;9.70;;;7.13;;
17451;SDS011;8843;48.838;9.324;2024-03-02T00:15:40;11.30;;;8.10;;
17451;SDS011;8843;48.838;9.324;2024-03-02T00:18:08;7.93;;;6.77;;
17451;SDS011;8843;48.838;9.324;2024-03-02T00:20:39;9.53;;;6.83;;
17451;SDS011;8843;48.838;9.324;2024-03-02T00:23:07;9.00;;;7.07;;
17451;SDS011;8843;48.838;9.324;2024-03-02T00:25:38;11.40;;;7.50;;
17451;SDS011;8843;48.838;9.324;2024-03-02T00:28:11;9.10;;;6.30;;
17451;SDS011;8843;48.838;9.324;2024-03-02T00:30:50;11.37;;;7.63;;
17451;SDS011;8843;48.838;9.324;2024-03-02T00:33:21;10.20;;;7.40;;
17451;SDS011;8843;48.838;9.324;2024-03-02T00:35:49;10.97;;;8.43;;
17451;SDS011;8843;48.838;9.324;2024-03-02T00:38:17;10.90;;;7.93;;
17451;SDS011;8843;48.838;9.324;2024-03-02T00:40:44;8.37;;;6.40;;
17451;SDS011;8843;48.838;9.324;2024-03-02T00:43:21;10.07;;;8.10;;
17451;SDS011;8843;48.838;9.324;2024-03-02T00:46:11;8.67;;;5.93;;
17451;SDS011;8843;48.838;9.324;2024-03-02T00:48:38;11.03;;;7.37;;
17451;SDS011;8843;48.838;9.324;2024-03-02T00:51:15;10.30;;;7.23;;
17451;SDS011;8843;48.838;9.324;2024-03-02T00:53:42;10.37;;;7.20;;
17451;SDS011;8843;48.838;9.324;2024-03-02T00:56:09;9.43;;;6.67;;
17451;SDS011;8843;48.838;9.324;2024-03-02T00:58:37;9.63;;;7.40;;
17451;SDS011;8843;48.838;9.324;2024-03-02T01:01:04;8.80;;;6.87;;
17451;SDS011;8843;48.838;9.324;2024-03-02T01:03:32;9.10;;;6.73;;
17451;SDS011;8843;48.838;9.324;2024-03-02T01:05:58;10.03;;;7.13;;
17451;SDS011;8843;48.838;9.324;2024-03-02T01:08:26;9.90;;;7.03;;
17451;SDS011;8843;48.838;9.324;2024-03-02T01:10:54;11.63;;;7.37;;
17451;SDS011;8843;48.838;9.324;2024-03-02T01:13:21;9.03;;;6.77;;
17451;SDS011;8843;48.838;9.324;2024-03-02T01:15:49;10.73;;;6.90;;
17451;SDS011;8843;48.838;9.324;2024-03-02T01:18:16;8.43;;;7.13;;
17451;SDS011;8843;48.838;9.324;2024-03-02T01:20:43;10.83;;;8.00;;
17451;SDS011;8843;48.838;9.324;2024-03-02T01:23:10;10.27;;;7.03;;
17451;SDS011;8843;48.838;9.324;2024-03-02T01:25:38;10.43;;;7.33;;
17451;SDS011;8843;48.838;9.324;2024-03-02T01:28:05;8.70;;;6.30;;
17451;SDS011;8843;48.838;9.324;2024-03-02T01:30:32;8.30;;;6.63;;
17451;SDS011;8843;48.838;9.324;2024-03-02T01:33:00;9.97;;;7.20;;
17451;SDS011;8843;48.838;9.324;2024-03-02T01:35:27;8.90;;;6.73;;
17451;SDS011;8843;48.838;9.324;2024-03-02T01:37:54;8.47;;;6.50;;
17451;SDS011;8843;48.838;9.324;2024-03-02T01:40:21;9.83;;;6.83;;
17451;SDS011;8843;48.838;9.324;2024-03-02T01:42:52;10.73;;;6.83;;
17451;SDS011;8843;48.838;9.324;2024-03-02T01:45:19;9.50;;;7.43;;
17451;SDS011;8843;48.838;9.324;2024-03-02T01:47:46;10.87;;;7.40;;
17451;SDS011;8843;48.838;9.324;2024-03-02T01:50:14;9.03;;;6.40;;
17451;SDS011;8843;48.838;9.324;2024-03-02T01:52:41;8.60;;;6.63;;
17451;SDS011;8843;48.838;9.324;2024-03-02T01:55:09;10.40;;;8.23;;
17451;SDS011;8843;48.838;9.324;2024-03-02T01:57:36;8.87;;;7.53;;
17451;SDS011;8843;48.838;9.324;2024-03-02T02:00:05;9.70;;;7.77;;
17451;SDS011;8843;48.838;9.324;2024-03-02T02:02:35;9.43;;;6.80;;
17451;SDS011;8843;48.838;9.324;2024-03-02T02:05:02;9.80;;;7.00;;
17451;SDS011;8843;48.838;9.324;2024-03-02T02:07:29;9.03;;;7.03;;
17451;SDS011;8843;48.838;9.324;2024-03-02T02:09:56;8.80;;;7.30;;
17451;SDS011;8843;48.838;9.324;2024-03-02T02:12:23;9.23;;;6.97;;
17451;SDS011;8843;48.838;9.324;2024-03-02T02:14:50;7.97;;;6.03;;
17451;SDS011;8843;48.838;9.324;2024-03-02T02:17:18;9.07;;;6.90;;
17451;SDS011;8843;48.838;9.324;2024-03-02T02:19:45;8.83;;;6.57;;
17451;SDS011;8843;48.838;9.324;2024-03-02T02:22:14;9.60;;;7.10;;
17451;SDS011;8843;48.838;9.324;2024-03-02T02:24:41;10.90;;;7.33;;
17451;SDS011;8843;48.838;9.324;2024-03-02T02:27:08;8.23;;;6.40;;
17451;SDS011;8843;48.838;9.324;2024-03-02T02:29:35;8.70;;;6.57;;
17451;SDS011;8843;48.838;9.324;2024-03-02T02:32:03;9.83;;;6.63;;
17451;SDS011;8843;48.838;9.324;2024-03-02T02:34:30;10.60;;;7.40;;
17451;SDS011;8843;48.838;9.324;2024-03-02T02:36:57;9.40;;;7.07;;
17451;SDS011;8843;48.838;9.324;2024-03-02T02:39:25;8.80;;;6.70;;
17451;SDS011;8843;48.838;9.324;2024-03-02T02:41:52;9.37;;;7.50;;
17451;SDS011;8843;48.838;9.324;2024-03-02T02:44:19;9.07;;;6.73;;
17451;SDS011;8843;48.838;9.324;2024-03-02T02:46:45;10.93;;;7.70;;
17451;SDS011;8843;48.838;9.324;2024-03-02T02:49:12;8.27;;;6.57;;
17451;SDS011;8843;48.838;9.324;2024-03-02T02:51:39;9.47;;;7.60;;
17451;SDS011;8843;48.838;9.324;2024-03-02T02:54:06;8.03;;;7.07;;
17451;SDS011;8843;48.838;9.324;2024-03-02T02:56:34;10.17;;;7.27;;
17451;SDS011;8843;48.838;9.324;2024-03-02T02:59:01;9.40;;;7.07;;
17451;SDS011;8843;48.838;9.324;2024-03-02T03:01:28;8.90;;;7.10;;
17451;SDS011;8843;48.838;9.324;2024-03-02T03:03:55;10.87;;;7.47;;
17451;SDS011;8843;48.838;9.324;2024-03-02T03:06:21;9.60;;;7.53;;
17451;SDS011;8843;48.838;9.324;2024-03-02T03:08:48;11.17;;;7.47;;
17451;SDS011;8843;48.838;9.324;2024-03-02T03:11:15;10.83;;;8.30;;
17451;SDS011;8843;48.838;9.324;2024-03-02T03:13:43;9.27;;;7.40;;
17451;SDS011;8843;48.838;9.324;2024-03-02T03:16:10;10.13;;;7.73;;
17451;SDS011;8843;48.838;9.324;2024-03-02T03:18:37;8.43;;;6.77;;
17451;SDS011;8843;48.838;9.324;2024-03-02T03:21:04;10.57;;;6.67;;
17451;SDS011;8843;48.838;9.324;2024-03-02T03:23:31;9.43;;;6.60;;
17451;SDS011;8843;48.838;9.324;2024-03-02T03:25:58;8.03;;;6.50;;
17451;SDS011;8843;48.838;9.324;2024-03-02T03:28:25;9.83;;;6.37;;
17451;SDS011;8843;48.838;9.324;2024-03-02T03:30:54;10.70;;;8.07;;
17451;SDS011;8843;48.838;9.324;2024-03-02T03:33:20;8.47;;;6.17;;
17451;SDS011;8843;48.838;9.324;2024-03-02T03:35:47;9.23;;;7.53;;
17451;SDS011;8843;48.838;9.324;2024-03-02T03:38:14;8.77;;;6.77;;
17451;SDS011;8843;48.838;9.324;2024-03-02T03:40:41;9.53;;;6.93;;
17451;SDS011;8843;48.838;9.324;2024-03-02T03:43:09;10.93;;;7.30;;
17451;SDS011;8843;48.838;9.324;2024-03-02T03:45:35;9.63;;;6.97;;
17451;SDS011;8843;48.838;9.324;2024-03-02T03:48:04;11.00;;;7.73;;
17451;SDS011;8843;48.838;9.324;2024-03-02T03:50:31;11.13;;;8.03;;
17451;SDS011;8843;48.838;9.324;2024-03-02T03:52:58;8.30;;;6.77;;
17451;SDS011;8843;48.838;9.324;2024-03-02T03:55:25;9.60;;;7.23;;
17451;SDS011;8843;48.838;9.324;2024-03-02T03:57:52;10.40;;;7.10;;
17451;SDS011;8843;48.838;9.324;2024-03-02T04:00:18;8.37;;;6.37;;
17451;SDS011;8843;48.838;9.324;2024-03-02T04:02:45;9.83;;;7.10;;
17451;SDS011;8843;48.838;9.324;2024-03-02T04:05:14;10.00;;;6.80;;
17451;SDS011;8843;48.838;9.324;2024-03-02T04:07:40;11.37;;;7.77;;
17451;SDS011;8843;48.838;9.324;2024-03-02T04:10:08;10.27;;;7.53;;
17451;SDS011;8843;48.838;9.324;2024-03-02T04:12:37;11.50;;;7.50;;
17451;SDS011;8843;48.838;9.324;2024-03-02T04:15:04;8.27;;;6.37;;
17451;SDS011;8843;48.838;9.324;2024-03-02T04:17:32;9.07;;;7.37;;
17451;SDS011;8843;48.838;9.324;2024-03-02T04:20:00;8.80;;;6.80;;
17451;SDS011;8843;48.838;9.324;2024-03-02T04:22:32;9.50;;;7.27;;
17451;SDS011;8843;48.838;9.324;2024-03-02T04:25:00;8.33;;;6.50;;
17451;SDS011;8843;48.838;9.324;2024-03-02T04:27:29;9.63;;;7.67;;
17451;SDS011;8843;48.838;9.324;2024-03-02T04:29:57;10.40;;;7.13;;
17451;SDS011;8843;48.838;9.324;2024-03-02T04:32:25;9.63;;;7.67;;
17451;SDS011;8843;48.838;9.324;2024-03-02T04:34:52;9.23;;;6.97;;
17451;SDS011;8843;48.838;9.324;2024-03-02T04:37:19;9.53;;;7.53;;
17451;SDS011;8843;48.838;9.324;2024-03-02T04:39:47;7.67;;;6.17;;
17451;SDS011;8843;48.838;9.324;2024-03-02T04:42:14;9.60;;;7.33;;
17451;SDS011;8843;48.838;9.324;2024-03-02T04:44:40;10.57;;;6.60;;
17451;SDS011;8843;48.838;9.324;2024-03-02T04:47:07;10.40;;;7.10;;
17451;SDS011;8843;48.838;9.324;2024-03-02T04:49:34;11.67;;;7.93;;
17451;SDS011;8843;48.838;9.324;2024-03-02T04:52:01;10.43;;;8.47;;
17451;SDS011;8843;48.838;9.324;2024-03-02T04:54:28;9.50;;;7.77;;
17451;SDS011;8843;48.838;9.324;2024-03-02T04:56:57;11.37;;;7.67;;
17451;SDS011;8843;48.838;9.324;2024-03-02T04:59:23;11.70;;;7.97;;
17451;SDS011;8843;48.838;9.324;2024-03-02T05:01:50;10.50;;;7.83;;
17451;SDS011;8843;48.838;9.324;2024-03-02T05:04:17;12.47;;;8.53;;
17451;SDS011;8843;48.838;9.324;2024-03-02T05:06:44;10.90;;;7.87;;
17451;SDS011;8843;48.838;9.324;2024-03-02T05:09:17;10.97;;;7.73;;
17451;SDS011;8843;48.838;9.324;2024-03-02T05:11:44;10.10;;;7.10;;
17451;SDS011;8843;48.838;9.324;2024-03-02T05:14:36;12.20;;;7.00;;
17451;SDS011;8843;48.838;9.324;2024-03-02T05:17:03;7.40;;;5.93;;
17451;SDS011;8843;48.838;9.324;2024-03-02T05:19:30;9.67;;;7.30;;
17451;SDS011;8843;48.838;9.324;2024-03-02T05:21:57;8.33;;;6.67;;
17451;SDS011;8843;48.838;9.324;2024-03-02T05:24:24;8.93;;;7.03;;
17451;SDS011;8843;48.838;9.324;2024-03-02T05:26:52;10.47;;;6.77;;
17451;SDS011;8843;48.838;9.324;2024-03-02T05:29:19;10.53;;;7.10;;
17451;SDS011;8843;48.838;9.324;2024-03-02T05:31:48;8.03;;;6.53;;
17451;SDS011;8843;48.838;9.324;2024-03-02T05:34:15;9.63;;;7.10;;
17451;SDS011;8843;48.838;9.324;2024-03-02T05:36:41;10.27;;;6.70;;
17451;SDS011;8843;48.838;9.324;2024-03-02T05:39:08;9.23;;;7.10;;
17451;SDS011;8843;48.838;9.324;2024-03-02T05:41:35;7.50;;;6.00;;
17451;SDS011;8843;48.838;9.324;2024-03-02T05:44:03;9.23;;;7.00;;
17451;SDS011;8843;48.838;9.324;2024-03-02T05:46:30;9.90;;;7.43;;
17451;SDS011;8843;48.838;9.324;2024-03-02T05:48:58;10.17;;;7.47;;
17451;SDS011;8843;48.838;9.324;2024-03-02T05:51:25;10.07;;;6.90;;
17451;SDS011;8843;48.838;9.324;2024-03-02T05:53:53;10.07;;;7.10;;
17451;SDS011;8843;48.838;9.324;2024-03-02T05:56:20;10.20;;;7.33;;
17451;SDS011;8843;48.838;9.324;2024-03-02T05:58:47;9.43;;;6.77;;
17451;SDS011;8843;48.838;9.324;2024-03-02T06:01:25;10.10;;;6.63;;
17451;SDS011;8843;48.838;9.324;2024-03-02T06:03:54;8.97;;;6.53;;
17451;SDS011;8843;48.838;9.324;2024-03-02T06:06:23;8.87;;;7.23;;
17451;SDS011;8843;48.838;9.324;2024-03-02T06:08:50;8.60;;;6.93;;
17451;SDS011;8843;48.838;9.324;2024-03-02T06:11:17;8.07;;;5.90;;
17451;SDS011;8843;48.838;9.324;2024-03-02T06:13:45;8.10;;;6.67;;
17451;SDS011;8843;48.838;9.324;2024-03-02T06:16:12;8.77;;;7.33;;
17451;SDS011;8843;48.838;9.324;2024-03-02T06:18:39;10.57;;;7.70;;
17451;SDS011;8843;48.838;9.324;2024-03-02T06:21:06;9.37;;;6.80;;
17451;SDS011;8843;48.838;9.324;2024-03-02T06:23:34;10.40;;;6.50;;
17451;SDS011;8843;48.838;9.324;2024-03-02T06:26:01;8.83;;;6.70;;
17451;SDS011;8843;48.838;9.324;2024-03-02T06:28:28;9.03;;;7.23;;
17451;SDS011;8843;48.838;9.324;2024-03-02T06:30:55;8.33;;;6.07;;
17451;SDS011;8843;48.838;9.324;2024-03-02T06:33:22;8.93;;;6.03;;
17451;SDS011;8843;48.838;9.324;2024-03-02T06:35:49;9.87;;;6.83;;
17451;SDS011;8843;48.838;9.324;2024-03-02T06:38:16;9.33;;;7.43;;
17451;SDS011;8843;48.838;9.324;2024-03-02T06:40:44;11.43;;;7.10;;
17451;SDS011;8843;48.838;9.324;2024-03-02T06:43:11;10.80;;;7.73;;
17451;SDS011;8843;48.838;9.324;2024-03-02T06:45:38;7.90;;;6.23;;
17451;SDS011;8843;48.838;9.324;2024-03-02T06:48:05;11.50;;;7.63;;
17451;SDS011;8843;48.838;9.324;2024-03-02T06:50:33;10.83;;;7.40;;
17451;SDS011;8843;48.838;9.324;2024-03-02T06:53:00;11.47;;;7.47;;
17451;SDS011;8843;48.838;9.324;2024-03-02T06:55:29;9.37;;;6.50;;
17451;SDS011;8843;48.838;9.324;2024-03-02T06:57:57;10.00;;;6.93;;
17451;SDS011;8843;48.838;9.324;2024-03-02T07:00:24;11.23;;;8.10;;
17451;SDS011;8843;48.838;9.324;2024-03-02T07:02:51;12.07;;;7.63;;
17451;SDS011;8843;48.838;9.324;2024-03-02T07:05:18;8.03;;;6.83;;
17451;SDS011;8843;48.838;9.324;2024-03-02T07:07:46;12.10;;;8.10;;
17451;SDS011;8843;48.838;9.324;2024-03-02T07:10:17;11.50;;;8.57;;
17451;SDS011;8843;48.838;9.324;2024-03-02T07:12:44;11.90;;;9.17;;
17451;SDS011;8843;48.838;9.324;2024-03-02T07:15:12;12.37;;;9.10;;
17451;SDS011;8843;48.838;9.324;2024-03-02T07:18:02;11.77;;;7.53;;
17451;SDS011;8843;48.838;9.324;2024-03-02T07:20:29;12.33;;;8.17;;
17451;SDS011;8843;48.838;9.324;2024-03-02T07:22:56;12.20;;;8.23;;
17451;SDS011;8843;48.838;9.324;2024-03-02T07:25:23;11.73;;;9.23;;
17451;SDS011;8843;48.838;9.324;2024-03-02T07:27:50;12.43;;;9.07;;
17451;SDS011;8843;48.838;9.324;2024-03-02T07:30:19;12.23;;;8.93;;
17451;SDS011;8843;48.838;9.324;2024-03-02T07:32:46;14.33;;;8.57;;
17451;SDS011;8843;48.838;9.324;2024-03-02T07:35:16;12.33;;;9.13;;
17451;SDS011;8843;48.838;9.324;2024-03-02T07:37:43;12.83;;;9.50;;
17451;SDS011;8843;48.838;9.324;2024-03-02T07:40:10;10.93;;;8.77;;
17451;SDS011;8843;48.838;9.324;2024-03-02T07:42:38;13.37;;;9.17;;
17451;SDS011;8843;48.838;9.324;2024-03-02T07:45:06;13.03;;;8.67;;
17451;SDS011;8843;48.838;9.324;2024-03-02T07:47:34;11.93;;;8.47;;
17451;SDS011;8843;48.838;9.324;2024-03-02T07:50:01;12.43;;;8.63;;
17451;SDS011;8843;48.838;9.324;2024-03-02T07:52:31;13.23;;;9.73;;
17451;SDS011;8843;48.838;9.324;2024-03-02T07:54:58;12.77;;;9.13;;
17451;SDS011;8843;48.838;9.324;2024-03-02T07:57:25;11.30;;;8.27;;
17451;SDS011;8843;48.838;9.324;2024-03-02T07:59:52;13.13;;;8.77;;
17451;SDS011;8843;48.838;9.324;2024-03-02T08:02:20;12.93;;;8.87;;
17451;SDS011;8843;48.838;9.324;2024-03-02T08:04:48;12.37;;;8.60;;
17451;SDS011;8843;48.838;9.324;2024-03-02T08:07:15;10.83;;;7.70;;
17451;SDS011;8843;48.838;9.324;2024-03-02T08:09:42;11.13;;;8.07;;
17451;SDS011;8843;48.838;9.324;2024-03-02T08:12:09;10.47;;;8.27;;
17451;SDS011;8843;48.838;9.324;2024-03-02T08:14:36;10.97;;;8.40;;
17451;SDS011;8843;48.838;9.324;2024-03-02T08:17:03;10.87;;;8.67;;
17451;SDS011;8843;48.838;9.324;2024-03-02T08:19:34;9.83;;;7.57;;
17451;SDS011;8843;48.838;9.324;2024-03-02T08:22:03;11.60;;;8.47;;
17451;SDS011;8843;48.838;9.324;2024-03-02T08:24:30;12.57;;;8.67;;
17451;SDS011;8843;48.838;9.324;2024-03-02T08:26:57;12.73;;;9.30;;
17451;SDS011;8843;48.838;9.324;2024-03-02T08:29:24;12.23;;;9.73;;
17451;SDS011;8843;48.838;9.324;2024-03-02T08:31:51;11.10;;;7.57;;
17451;SDS011;8843;48.838;9.324;2024-03-02T08:34:18;9.67;;;7.13;;
17451;SDS011;8843;48.838;9.324;2024-03-02T08:36:45;11.43;;;7.80;;
17451;SDS011;8843;48.838;9.324;2024-03-02T08:39:14;11.87;;;7.87;;
17451;SDS011;8843;48.838;9.324;2024-03-02T08:41:41;10.20;;;8.03;;
17451;SDS011;8843;48.838;9.324;2024-03-02T08:44:08;11.23;;;7.90;;
17451;SDS011;8843;48.838;9.324;2024-03-02T08:46:35;9.97;;;7.20;;
17451;SDS011;8843;48.838;9.324;2024-03-02T08:49:02;10.93;;;8.53;;
17451;SDS011;8843;48.838;9.324;2024-03-02T08:51:30;11.60;;;8.77;;
17451;SDS011;8843;48.838;9.324;2024-03-02T08:53:57;11.77;;;7.90;;
17451;SDS011;8843;48.838;9.324;2024-03-02T08:56:25;10.53;;;7.60;;
17451;SDS011;8843;48.838;9.324;2024-03-02T08:58:52;15.17;;;10.50;;
17451;SDS011;8843;48.838;9.324;2024-03-02T09:01:19;15.77;;;9.37;;
17451;SDS011;8843;48.838;9.324;2024-03-02T09:03:47;11.87;;;8.13;;
17451;SDS011;8843;48.838;9.324;2024-03-02T09:06:18;11.80;;;9.30;;
17451;SDS011;8843;48.838;9.324;2024-03-02T09:08:51;14.57;;;8.67;;
17451;SDS011;8843;48.838;9.324;2024-03-02T09:11:19;11.17;;;7.73;;
17451;SDS011;8843;48.838;9.324;2024-03-02T09:13:47;10.17;;;7.30;;
17451;SDS011;8843;48.838;9.324;2024-03-02T09:16:14;8.33;;;6.70;;
17451;SDS011;8843;48.838;9.324;2024-03-02T09:18:41;9.20;;;7.30;;
17451;SDS011;8843;48.838;9.324;2024-03-02T09:21:08;7.90;;;5.87;;
17451;SDS011;8843;48.838;9.324;2024-03-02T09:23:35;9.03;;;6.80;;
17451;SDS011;8843;48.838;9.324;2024-03-02T09:26:01;10.73;;;6.77;;
17451;SDS011;8843;48.838;9.324;2024-03-02T09:28:28;9.20;;;6.30;;
17451;SDS011;8843;48.838;9.324;2024-03-02T09:30:56;8.97;;;6.70;;
17451;SDS011;8843;48.838;9.324;2024-03-02T09:33:23;9.23;;;6.53;;
17451;SDS011;8843;48.838;9.324;2024-03-02T09:35:50;10.23;;;6.30;;
17451;SDS011;8843;48.838;9.324;2024-03-02T09:38:17;8.00;;;6.33;;
17451;SDS011;8843;48.838;9.324;2024-03-02T09:40:44;9.83;;;6.10;;
17451;SDS011;8843;48.838;9.324;2024-03-02T09:43:11;11.47;;;7.47;;
17451;SDS011;8843;48.838;9.324;2024-03-02T09:45:38;9.93;;;6.63;;
17451;SDS011;8843;48.838;9.324;2024-03-02T09:48:07;8.97;;;6.87;;
17451;SDS011;8843;48.838;9.324;2024-03-02T09:50:34;9.03;;;6.50;;
17451;SDS011;8843;48.838;9.324;2024-03-02T09:53:01;9.97;;;6.67;;
17451;SDS011;8843;48.838;9.324;2024-03-02T09:55:28;8.37;;;6.10;;
17451;SDS011;8843;48.838;9.324;2024-03-02T09:57:55;8.10;;;6.17;;
17451;SDS011;8843;48.838;9.324;2024-03-02T10:00:21;7.37;;;5.30;;
17451;SDS011;8843;48.838;9.324;2024-03-02T10:02:49;8.17;;;5.67;;
17451;SDS011;8843;48.838;9.324;2024-03-02T10:05:24;5.97;;;4.33;;
17451;SDS011;8843;48.838;9.324;2024-03-02T10:07:58;5.40;;;4.47;;
17451;SDS011;8843;48.838;9.324;2024-03-02T10:10:26;6.37;;;4.27;;
17451;SDS011;8843;48.838;9.324;2024-03-02T10:13:05;5.53;;;4.77;;
17451;SDS011;8843;48.838;9.324;2024-03-02T10:15:32;6.47;;;4.63;;
17451;SDS011;8843;48.838;9.324;2024-03-02T10:17:59;5.73;;;4.43;;
17451;SDS011;8843;48.838;9.324;2024-03-02T10:20:27;5.33;;;4.07;;
17451;SDS011;8843;48.838;9.324;2024-03-02T10:22:55;5.57;;;4.30;;
17451;SDS011;8843;48.838;9.324;2024-03-02T10:25:28;6.13;;;4.47;;
17451;SDS011;8843;48.838;9.324;2024-03-02T10:27:57;6.83;;;4.37;;
17451;SDS011;8843;48.838;9.324;2024-03-02T10:30:24;6.83;;;3.77;;
17451;SDS011;8843;48.838;9.324;2024-03-02T10:32:52;4.93;;;3.40;;
17451;SDS011;8843;48.838;9.324;2024-03-02T10:35:20;4.20;;;3.10;;
17451;SDS011;8843;48.838;9.324;2024-03-02T10:37:49;3.20;;;2.90;;
17451;SDS011;8843;48.838;9.324;2024-03-02T10:40:17;2.63;;;2.37;;
17451;SDS011;8843;48.838;9.324;2024-03-02T10:42:44;3.43;;;2.97;;
17451;SDS011;8843;48.838;9.324;2024-03-02T10:45:12;3.07;;;2.53;;
17451;SDS011;8843;48.838;9.324;2024-03-02T10:47:41;2.77;;;2.20;;
17451;SDS011;8843;48.838;9.324;2024-03-02T10:50:09;2.60;;;2.20;;
17451;SDS011;8843;48.838;9.324;2024-03-02T10:52:36;2.77;;;2.50;;
17451;SDS011;8843;48.838;9.324;2024-03-02T10:55:06;2.80;;;2.40;;
17451;SDS011;8843;48.838;9.324;2024-03-02T10:57:36;3.30;;;2.67;;
17451;SDS011;8843;48.838;9.324;2024-03-02T11:00:08;4.00;;;3.33;;
17451;SDS011;8843;48.838;9.324;2024-03-02T11:02:41;3.33;;;2.40;;
17451;SDS011;8843;48.838;9.324;2024-03-02T11:05:13;3.20;;;2.80;;
17451;SDS011;8843;48.838;9.324;2024-03-02T11:07:46;2.83;;;2.20;;
17451;SDS011;8843;48.838;9.324;2024-03-02T11:10:15;3.43;;;2.70;;
17451;SDS011;8843;48.838;9.324;2024-03-02T11:12:43;2.70;;;2.50;;
17451;SDS011;8843;48.838;9.324;2024-03-02T11:15:25;2.60;;;2.20;;
17451;SDS011;8843;48.838;9.324;2024-03-02T11:17:54;2.20;;;2.00;;
17451;SDS011;8843;48.838;9.324;2024-03-02T11:20:22;2.60;;;2.40;;
17451;SDS011;8843;48.838;9.324;2024-03-02T11:22:49;2.37;;;2.13;;
17451;SDS011;8843;48.838;9.324;2024-03-02T11:25:24;2.80;;;2.20;;
17451;SDS011;8843;48.838;9.324;2024-03-02T11:28:05;2.80;;;2.13;;
17451;SDS011;8843;48.838;9.324;2024-03-02T11:30:49;3.43;;;2.70;;
17451;SDS011;8843;48.838;9.324;2024-03-02T11:33:22;2.83;;;2.10;;
17451;SDS011;8843;48.838;9.324;2024-03-02T11:35:52;2.10;;;1.90;;
17451;SDS011;8843;48.838;9.324;2024-03-02T11:38:19;3.97;;;2.17;;
17451;SDS011;8843;48.838;9.324;2024-03-02T11:40:47;3.73;;;2.40;;
17451;SDS011;8843;48.838;9.324;2024-03-02T11:43:14;2.20;;;2.00;;
17451;SDS011;8843;48.838;9.324;2024-03-02T11:45:41;2.30;;;2.10;;
17451;SDS011;8843;48.838;9.324;2024-03-02T11:48:10;2.13;;;1.70;;
17451;SDS011;8843;48.838;9.324;2024-03-02T11:50:40;3.13;;;1.93;;
17451;SDS011;8843;48.838;9.324;2024-03-02T11:53:09;1.60;;;1.50;;
17451;SDS011;8843;48.838;9.324;2024-03-02T11:55:37;1.83;;;1.63;;
17451;SDS011;8843;48.838;9.324;2024-03-02T11:58:07;1.97;;;1.70;;
17451;SDS011;8843;48.838;9.324;2024-03-02T12:00:35;4.20;;;1.80;;
17451;SDS011;8843;48.838;9.324;2024-03-02T12:03:02;1.93;;;1.30;;
17451;SDS011;8843;48.838;9.324;2024-03-02T12:05:32;1.40;;;1.30;;
17451;SDS011;8843;48.838;9.324;2024-03-02T12:07:59;2.03;;;1.40;;
17451;SDS011;8843;48.838;9.324;2024-03-02T12:10:27;2.37;;;1.50;;
17451;SDS011;8843;48.838;9.324;2024-03-02T12:12:55;1.20;;;1.10;;
17451;SDS011;8843;48.838;9.324;2024-03-02T12:15:25;1.20;;;1.10;;
17451;SDS011;8843;48.838;9.324;2024-03-02T12:17:53;2.10;;;1.43;;
17451;SDS011;8843;48.838;9.324;2024-03-02T12:20:21;0.90;;;0.90;;
17451;SDS011;8843;48.838;9.324;2024-03-02T12:22:49;1.30;;;1.20;;
17451;SDS011;8843;48.838;9.324;2024-03-02T12:25:17;1.23;;;1.13;;
17451;SDS011;8843;48.838;9.324;2024-03-02T12:27:44;1.20;;;1.10;;
17451;SDS011;8843;48.838;9.324;2024-03-02T12:30:12;1.50;;;1.30;;
17451;SDS011;8843;48.838;9.324;2024-03-02T12:32:40;1.40;;;1.07;;
17451;SDS011;8843;48.838;9.324;2024-03-02T12:35:08;1.40;;;1.20;;
17451;SDS011;8843;48.838;9.324;2024-03-02T12:37:42;2.07;;;1.10;;
17451;SDS011;8843;48.838;9.324;2024-03-02T12:40:10;1.27;;;1.20;;
17451;SDS011;8843;48.838;9.324;2024-03-02T12:42:37;1.30;;;1.20;;
17451;SDS011;8843;48.838;9.324;2024-03-02T12:45:05;1.20;;;1.10;;
17451;SDS011;8843;48.838;9.324;2024-03-02T12:47:32;1.40;;;1.30;;
17451;SDS011;8843;48.838;9.324;2024-03-02T12:50:01;1.53;;;1.43;;
17451;SDS011;8843;48.838;9.324;2024-03-02T12:52:29;1.50;;;1.40;;
17451;SDS011;8843;48.838;9.324;2024-03-02T12:54:57;1.40;;;1.30;;
17451;SDS011;8843;48.838;9.324;2024-03-02T12:57:25;1.33;;;1.23;;
17451;SDS011;8843;48.838;9.324;2024-03-02T12:59:58;1.80;;;1.53;;
17451;SDS011;8843;48.838;9.324;2024-03-02T13:02:27;1.50;;;1.40;;
17451;SDS011;8843;48.838;9.324;2024-03-02T13:04:54;1.97;;;1.30;;
17451;SDS011;8843;48.838;9.324;2024-03-02T13:07:23;1.83;;;1.40;;
17451;SDS011;8843;48.838;9.324;2024-03-02T13:09:51;1.90;;;1.67;;
17451;SDS011;8843;48.838;9.324;2024-03-02T13:12:20;1.87;;;1.50;;
17451;SDS011;8843;48.838;9.324;2024-03-02T13:14:48;1.60;;;1.50;;
17451;SDS011;8843;48.838;9.324;2024-03-02T13:17:16;2.00;;;1.53;;
17451;SDS011;8843;48.838;9.324;2024-03-02T13:19:50;1.40;;;1.30;;
17451;SDS011;8843;48.838;9.324;2024-03-02T13:22:18;1.70;;;1.43;;
17451;SDS011;8843;48.838;9.324;2024-03-02T13:24:47;2.97;;;1.43;;
17451;SDS011;8843;48.838;9.324;2024-03-02T13:27:14;1.67;;;1.50;;
17451;SDS011;8843;48.838;9.324;2024-03-02T13:29:41;1.67;;;1.40;;
17451;SDS011;8843;48.838;9.324;2024-03-02T13:32:08;1.73;;;1.43;;
17451;SDS011;8843;48.838;9.324;2024-03-02T13:34:35;3.10;;;1.40;;
17451;SDS011;8843;48.838;9.324;2024-03-02T13:37:02;1.40;;;1.23;;
17451;SDS011;8843;48.838;9.324;2024-03-02T13:39:30;1.60;;;1.50;;
17451;SDS011;8843;48.838;9.324;2024-03-02T13:41:59;1.47;;;1.30;;
17451;SDS011;8843;48.838;9.324;2024-03-02T13:44:28;1.70;;;1.60;;
17451;SDS011;8843;48.838;9.324;2024-03-02T13:46:56;1.30;;;1.20;;
17451;SDS011;8843;48.838;9.324;2024-03-02T13:49:23;1.60;;;1.43;;
17451;SDS011;8843;48.838;9.324;2024-03-02T13:51:53;1.67;;;1.03;;
17451;SDS011;8843;48.838;9.324;2024-03-02T13:54:21;1.40;;;1.30;;
17451;SDS011;8843;48.838;9.324;2024-03-02T13:56:49;1.60;;;1.50;;
17451;SDS011;8843;48.838;9.324;2024-03-02T13:59:17;2.07;;;1.60;;
17451;SDS011;8843;48.838;9.324;2024-03-02T14:01:44;1.73;;;1.40;;
17451;SDS011;8843;48.838;9.324;2024-03-02T14:04:11;3.20;;;1.53;;
17451;SDS011;8843;48.838;9.324;2024-03-02T14:06:38;1.10;;;1.00;;
17451;SDS011;8843;48.838;9.324;2024-03-02T14:09:05;1.37;;;1.27;;
17451;SDS011;8843;48.838;9.324;2024-03-02T14:11:32;1.20;;;1.10;;
17451;SDS011;8843;48.838;9.324;2024-03-02T14:13:58;1.20;;;1.10;;
17451;SDS011;8843;48.838;9.324;2024-03-02T14:16:27;1.30;;;1.20;;
17451;SDS011;8843;48.838;9.324;2024-03-02T14:18:54;1.50;;;1.40;;
17451;SDS011;8843;48.838;9.324;2024-03-02T14:21:21;1.60;;;1.50;;
17451;SDS011;8843;48.838;9.324;2024-03-02T14:23:48;2.40;;;1.10;;
17451;SDS011;8843;48.838;9.324;2024-03-02T14:26:15;1.37;;;1.07;;
17451;SDS011;8843;48.838;9.324;2024-03-02T14:28:42;1.90;;;1.20;;
17451;SDS011;8843;48.838;9.324;2024-03-02T14:31:09;1.33;;;1.20;;
17451;SDS011;8843;48.838;9.324;2024-03-02T14:33:37;1.33;;;1.13;;
17451;SDS011;8843;48.838;9.324;2024-03-02T14:36:04;1.23;;;1.13;;
17451;SDS011;8843;48.838;9.324;2024-03-02T14:38:32;1.13;;;1.03;;
17451;SDS011;8843;48.838;9.324;2024-03-02T14:40:59;1.20;;;1.10;;
17451;SDS011;8843;48.838;9.324;2024-03-02T14:43:26;1.20;;;1.10;;
17451;SDS011;8843;48.838;9.324;2024-03-02T14:45:53;2.17;;;1.00;;
17451;SDS011;8843;48.838;9.324;2024-03-02T14:48:20;1.03;;;1.03;;
17451;SDS011;8843;48.838;9.324;2024-03-02T14:50:48;1.73;;;1.30;;
17451;SDS011;8843;48.838;9.324;2024-03-02T14:53:16;1.20;;;1.10;;
17451;SDS011;8843;48.838;9.324;2024-03-02T14:55:43;1.17;;;1.03;;
17451;SDS011;8843;48.838;9.324;2024-03-02T14:58:10;1.83;;;1.37;;
17451;SDS011;8843;48.838;9.324;2024-03-02T15:00:37;1.07;;;1.00;;
17451;SDS011;8843;48.838;9.324;2024-03-02T15:03:04;1.90;;;1.43;;